Time;durP1;ratioP1;P1;durP2;ratioP2;P2;SDS_P1;SDS_P2;PMS_P1;PMS_P2;Temp;Humidity;BMP_temperature;BMP_pressure;BME280_temperature;BME280_humidity;BME280_pressure;Samples;Min_cycle;Max_cycle;Signal;HPM_P1;HPM_P2
2024/01/31 00:01:17;;;;;;;;;;;;;;;23.12;17.28;99623.28;5099462;27;19912;-78
2024/01/31 00:03:44;;;;;;;;;;;;;;;23.05;16.77;99622.44;5101130;28;20003;-78
2024/01/31 00:06:13;;;;;;;;;;;;;;;22.90;16.95;99629.13;5101816;28;19947;-78
2024/01/31 00:08:39;;;;;;;;;;;;;;;22.71;17.11;99624.56;5106228;28;19969;-77
2024/01/31 00:11:08;;;;;;;;;;;;;;;22.81;17.11;99625.84;5096468;27;19970;-78
2024/01/31 00:13:34;;;;;;;;;;;;;;;22.78;17.08;99619.03;5102790;28;20372;-78
2024/01/31 00:16:01;;;;;;;;;;;;;;;23.08;17.06;99627.25;5084883;28;20011;-78
2024/01/31 00:18:27;;;;;;;;;;;;;;;23.26;16.60;99630.97;5097998;28;20011;-78
2024/01/31 00:20:53;;;;;;;;;;;;;;;23.29;16.45;99625.38;5102224;28;20284;-78
2024/01/31 00:23:19;;;;;;;;;;;;;;;23.08;16.70;99627.25;5104148;28;19980;-78
2024/01/31 00:25:45;;;;;;;;;;;;;;;23.07;16.52;99632.06;5100889;28;19920;-78
2024/01/31 00:28:12;;;;;;;;;;;;;;;22.75;17.13;99633.81;5103123;28;19920;-78
2024/01/31 00:30:38;;;;;;;;;;;;;;;22.85;16.60;99630.28;5103452;28;19916;-78
2024/01/31 00:33:04;;;;;;;;;;;;;;;22.85;16.90;99641.47;5101469;28;19920;-78
2024/01/31 00:35:30;;;;;;;;;;;;;;;23.07;16.97;99628.44;5104924;28;20011;-78
2024/01/31 00:37:56;;;;;;;;;;;;;;;23.14;17.04;99626.50;5110632;28;20289;-78
2024/01/31 00:40:22;;;;;;;;;;;;;;;23.30;16.89;99621.38;5106429;28;20391;-78
2024/01/31 00:42:49;;;;;;;;;;;;;;;23.18;16.50;99627.31;5094957;28;19963;-78
2024/01/31 00:45:15;;;;;;;;;;;;;;;23.10;16.47;99630.47;5107895;28;19924;-78
2024/01/31 00:47:41;;;;;;;;;;;;;;;22.92;16.64;99629.56;5111986;28;19923;-78
2024/01/31 00:50:07;;;;;;;;;;;;;;;22.80;16.96;99622.22;5085153;28;19924;-78
2024/01/31 00:52:33;;;;;;;;;;;;;;;22.58;17.35;99626.03;5097608;28;19927;-78
2024/01/31 00:54:59;;;;;;;;;;;;;;;22.51;17.19;99623.16;5104633;28;19943;-78
2024/01/31 00:57:25;;;;;;;;;;;;;;;22.45;17.43;99616.34;5106871;28;19920;-78
2024/01/31 00:59:51;;;;;;;;;;;;;;;22.63;17.39;99625.72;5109561;28;20227;-78
2024/01/31 01:02:17;;;;;;;;;;;;;;;22.59;17.43;99622.06;5102062;28;20265;-77
2024/01/31 01:04:44;;;;;;;;;;;;;;;22.23;17.56;99620.91;5105482;28;20022;-77
2024/01/31 01:07:10;;;;;;;;;;;;;;;22.34;17.62;99623.81;5107058;28;19916;-78
2024/01/31 01:09:36;;;;;;;;;;;;;;;22.49;17.30;99617.16;5098936;28;19920;-78
2024/01/31 01:12:02;;;;;;;;;;;;;;;22.41;17.41;99615.47;5095812;28;19916;-78
2024/01/31 01:14:28;;;;;;;;;;;;;;;22.36;17.48;99616.63;5106186;28;19963;-78
2024/01/31 01:16:54;;;;;;;;;;;;;;;22.26;17.72;99613.75;5098493;28;19923;-78
2024/01/31 01:19:20;;;;;;;;;;;;;;;22.58;17.15;99618.44;5102896;28;19920;-78
2024/01/31 01:21:47;;;;;;;;;;;;;;;22.93;16.60;99619.94;5104419;28;19920;-78
2024/01/31 01:24:13;;;;;;;;;;;;;;;23.13;16.38;99624.06;5098272;28;19939;-78
2024/01/31 01:26:39;;;;;;;;;;;;;;;23.15;16.61;99619.69;5080314;28;19923;-78
2024/01/31 01:29:06;;;;;;;;;;;;;;;23.16;16.28;99626.91;5110542;28;19974;-78
2024/01/31 01:31:32;;;;;;;;;;;;;;;22.87;16.50;99627.88;5112416;28;19957;-78
2024/01/31 01:34:01;;;;;;;;;;;;;;;22.78;16.63;99629.44;5110759;28;20288;-78
2024/01/31 01:36:27;;;;;;;;;;;;;;;22.93;16.41;99615.16;5110483;28;20015;-78
2024/01/31 01:38:53;;;;;;;;;;;;;;;23.01;16.33;99618.81;5095548;28;19922;-78
2024/01/31 01:41:19;;;;;;;;;;;;;;;22.19;16.89;99630.47;5108648;28;19927;-78
2024/01/31 01:43:47;;;;;;;;;;;;;;;22.26;17.30;99616.53;5106854;28;20011;-78
2024/01/31 01:46:16;;;;;;;;;;;;;;;22.55;16.82;99621.19;5113095;28;19980;-78
2024/01/31 01:48:42;;;;;;;;;;;;;;;22.15;16.91;99612.84;5109866;28;19928;-78
2024/01/31 01:51:09;;;;;;;;;;;;;;;22.03;17.24;99616.72;5112995;28;20387;-78
2024/01/31 01:53:36;;;;;;;;;;;;;;;22.23;16.92;99609.72;5107531;28;20002;-78
2024/01/31 01:56:03;;;;;;;;;;;;;;;22.36;16.82;99613.03;5112746;28;20029;-77
2024/01/31 01:58:31;;;;;;;;;;;;;;;22.20;16.83;99610.47;5102380;28;20399;-77
2024/01/31 02:00:58;;;;;;;;;;;;;;;22.17;17.23;99605.66;5100148;28;20404;-77
2024/01/31 02:03:24;;;;;;;;;;;;;;;22.49;17.46;99611.56;5098527;28;20404;-77
2024/01/31 02:05:50;;;;;;;;;;;;;;;22.44;17.16;99620.31;5083526;28;20338;-77
2024/01/31 02:08:16;;;;;;;;;;;;;;;22.07;17.70;99613.94;5110334;28;19927;-76
2024/01/31 02:10:42;;;;;;;;;;;;;;;21.82;17.64;99611.63;5100715;28;19966;-77
2024/01/31 02:13:09;;;;;;;;;;;;;;;22.18;17.20;99615.66;5100378;28;20368;-77
2024/01/31 02:15:35;;;;;;;;;;;;;;;22.54;17.21;99609.19;5105324;27;19930;-77
2024/01/31 02:18:01;;;;;;;;;;;;;;;22.73;16.91;99613.00;5109750;27;19966;-77
2024/01/31 02:20:28;;;;;;;;;;;;;;;22.87;16.73;99611.09;5105448;28;19922;-77
2024/01/31 02:22:55;;;;;;;;;;;;;;;22.95;16.67;99609.97;5108644;27;19920;-77
2024/01/31 02:25:21;;;;;;;;;;;;;;;22.91;16.50;99608.31;5111144;28;19923;-79
2024/01/31 02:27:47;;;;;;;;;;;;;;;22.91;16.24;99602.72;5105703;27;19928;-76
2024/01/31 02:30:15;;;;;;;;;;;;;;;22.89;16.09;99600.31;5114214;28;19920;-79
2024/01/31 02:32:41;;;;;;;;;;;;;;;22.64;17.03;99593.72;5107072;27;19916;-79
2024/01/31 02:35:08;;;;;;;;;;;;;;;22.66;16.63;99605.34;5104740;27;19975;-79
2024/01/31 02:37:34;;;;;;;;;;;;;;;22.74;16.55;99598.59;5107344;27;19920;-79
2024/01/31 02:40:00;;;;;;;;;;;;;;;22.64;16.89;99600.13;5102673;27;19920;-79
2024/01/31 02:42:26;;;;;;;;;;;;;;;22.68;16.55;99597.38;5097299;27;19926;-79
2024/01/31 02:44:52;;;;;;;;;;;;;;;22.69;16.44;99594.16;5103624;27;19954;-79
2024/01/31 02:47:18;;;;;;;;;;;;;;;22.38;16.52;99593.88;5107020;27;20018;-78
2024/01/31 02:49:44;;;;;;;;;;;;;;;22.20;16.77;99598.47;5113099;28;19924;-79
2024/01/31 02:52:10;;;;;;;;;;;;;;;22.34;16.76;99598.63;5102778;28;19919;-78
2024/01/31 02:54:36;;;;;;;;;;;;;;;22.37;16.59;99597.84;5115060;28;20391;-79
2024/01/31 02:57:02;;;;;;;;;;;;;;;22.49;16.81;99595.59;5100797;27;20399;-79
2024/01/31 02:59:28;;;;;;;;;;;;;;;22.65;16.72;99596.13;5101691;28;19920;-77
2024/01/31 03:01:54;;;;;;;;;;;;;;;22.76;16.50;99589.78;5098470;28;19920;-79
2024/01/31 03:04:20;;;;;;;;;;;;;;;22.83;16.31;99587.84;5096453;27;20262;-79
2024/01/31 03:06:46;;;;;;;;;;;;;;;22.83;16.47;99595.44;5108663;27;19927;-79
2024/01/31 03:09:12;;;;;;;;;;;;;;;22.14;16.63;99588.84;5110990;28;20018;-79
2024/01/31 03:11:38;;;;;;;;;;;;;;;22.14;16.71;99600.03;5104107;27;19928;-77
2024/01/31 03:14:04;;;;;;;;;;;;;;;22.26;16.49;99605.34;5093515;27;19959;-78
2024/01/31 03:16:30;;;;;;;;;;;;;;;21.94;16.87;99605.81;5112274;28;19916;-78
2024/01/31 03:18:58;;;;;;;;;;;;;;;22.08;17.32;99605.16;5111741;28;19916;-79
2024/01/31 03:21:24;;;;;;;;;;;;;;;22.15;17.15;99598.84;5095370;28;19920;-79
2024/01/31 03:23:51;;;;;;;;;;;;;;;22.25;17.15;99604.53;5098068;27;19974;-77
2024/01/31 03:26:17;;;;;;;;;;;;;;;22.41;16.95;99605.09;5124092;27;19916;-78
2024/01/31 03:28:43;;;;;;;;;;;;;;;22.33;16.96;99600.63;5091585;28;19970;-79
2024/01/31 03:31:09;;;;;;;;;;;;;;;22.01;16.88;99610.69;5103857;28;19943;-78
2024/01/31 03:33:35;;;;;;;;;;;;;;;21.93;17.08;99606.22;5112688;28;20286;-77
2024/01/31 03:36:02;;;;;;;;;;;;;;;22.05;16.80;99597.56;5106788;28;20038;-77
2024/01/31 03:38:28;;;;;;;;;;;;;;;22.24;16.95;99600.13;5111121;28;19947;-79
2024/01/31 03:40:54;;;;;;;;;;;;;;;22.32;16.71;99604.63;5095615;27;19943;-78
2024/01/31 03:43:20;;;;;;;;;;;;;;;22.50;16.72;99604.75;5096768;28;20003;-79
2024/01/31 03:45:46;;;;;;;;;;;;;;;22.62;16.31;99596.91;5099436;27;20389;-79
2024/01/31 03:48:12;;;;;;;;;;;;;;;22.66;16.47;99602.56;5107040;28;20280;-78
2024/01/31 03:50:38;;;;;;;;;;;;;;;22.29;16.65;99601.75;5114684;28;20265;-78
2024/01/31 03:53:05;;;;;;;;;;;;;;;22.20;16.71;99607.69;5106119;28;20376;-79
2024/01/31 03:55:32;;;;;;;;;;;;;;;22.26;16.99;99603.38;5098088;28;19920;-79
2024/01/31 03:57:58;;;;;;;;;;;;;;;22.49;16.67;99600.38;5109389;28;19920;-79
2024/01/31 04:00:24;;;;;;;;;;;;;;;22.66;16.12;99602.56;5097201;28;19916;-79
2024/01/31 04:02:50;;;;;;;;;;;;;;;22.11;16.54;99598.00;5097385;28;20015;-79
2024/01/31 04:05:16;;;;;;;;;;;;;;;21.78;17.04;99608.00;5097845;28;19927;-78
2024/01/31 04:07:42;;;;;;;;;;;;;;;22.10;16.73;99599.97;5104087;27;19989;-78
2024/01/31 04:10:09;;;;;;;;;;;;;;;22.15;16.17;99599.63;5102788;28;19915;-78
2024/01/31 04:12:35;;;;;;;;;;;;;;;21.93;16.62;99606.22;5102448;28;19924;-78
2024/01/31 04:15:01;;;;;;;;;;;;;;;22.19;16.46;99606.09;5106620;28;19924;-78
2024/01/31 04:17:27;;;;;;;;;;;;;;;21.99;16.76;99604.66;5101870;28;19934;-78
2024/01/31 04:19:53;;;;;;;;;;;;;;;21.92;16.66;99608.19;5098149;28;19920;-78
2024/01/31 04:22:19;;;;;;;;;;;;;;;22.08;16.79;99613.56;5105376;28;19986;-79
2024/01/31 04:24:45;;;;;;;;;;;;;;;22.15;16.75;99604.44;5109541;28;20368;-78
2024/01/31 04:27:11;;;;;;;;;;;;;;;22.23;17.01;99617.31;5096304;28;19933;-78
2024/01/31 04:29:38;;;;;;;;;;;;;;;22.35;16.62;99611.44;5110322;27;19930;-78
2024/01/31 04:32:05;;;;;;;;;;;;;;;22.41;16.44;99598.69;5112526;28;20002;-78
2024/01/31 04:34:32;;;;;;;;;;;;;;;22.42;16.60;99615.09;5108232;28;19923;-78
2024/01/31 04:36:58;;;;;;;;;;;;;;;22.62;16.44;99607.28;5095440;28;19924;-78
2024/01/31 04:39:24;;;;;;;;;;;;;;;22.71;16.47;99609.78;5103940;28;19966;-77
2024/01/31 04:41:50;;;;;;;;;;;;;;;22.81;16.19;99598.66;5094420;28;19931;-77
2024/01/31 04:44:16;;;;;;;;;;;;;;;22.78;16.14;99601.44;5108070;28;19924;-77
2024/01/31 04:46:42;;;;;;;;;;;;;;;22.84;16.22;99608.28;5113949;28;19919;-77
2024/01/31 04:49:08;;;;;;;;;;;;;;;22.79;16.12;99603.03;5080373;28;19930;-77
2024/01/31 04:51:39;;;;;;;;;;;;;;;22.89;15.99;99594.72;5095607;28;19927;-77
2024/01/31 04:54:05;;;;;;;;;;;;;;;22.77;16.46;99588.63;5093074;28;19920;-77
2024/01/31 04:56:31;;;;;;;;;;;;;;;22.66;16.36;99600.53;5095534;28;19985;-77
2024/01/31 04:58:57;;;;;;;;;;;;;;;22.58;16.64;99603.63;5095451;28;20285;-77
2024/01/31 05:01:23;;;;;;;;;;;;;;;22.56;16.72;99590.03;5098744;28;19927;-77
2024/01/31 05:03:49;;;;;;;;;;;;;;;22.76;16.60;99590.59;5098934;28;19930;-77
2024/01/31 05:06:15;;;;;;;;;;;;;;;22.55;16.68;99596.81;5096401;28;20006;-77
2024/01/31 05:08:41;;;;;;;;;;;;;;;22.44;16.64;99603.50;5103707;28;19920;-76
2024/01/31 05:11:07;;;;;;;;;;;;;;;22.32;16.82;99615.00;5098034;28;19916;-76
2024/01/31 05:13:33;;;;;;;;;;;;;;;22.47;16.82;99611.97;5097315;28;20420;-76
2024/01/31 05:15:59;;;;;;;;;;;;;;;22.57;16.81;99614.03;5110716;28;19923;-76
2024/01/31 05:18:25;;;;;;;;;;;;;;;22.72;16.89;99614.19;5110392;28;20012;-77
2024/01/31 05:20:51;;;;;;;;;;;;;;;22.79;16.48;99617.03;5105637;28;19920;-76
2024/01/31 05:23:17;;;;;;;;;;;;;;;22.85;16.75;99618.28;5099822;28;19924;-77
2024/01/31 05:25:45;;;;;;;;;;;;;;;22.83;16.68;99620.66;5096409;28;20019;-78
2024/01/31 05:28:12;;;;;;;;;;;;;;;22.88;16.46;99617.50;5110047;28;20002;-77
2024/01/31 05:30:38;;;;;;;;;;;;;;;22.62;16.96;99622.09;5118827;28;20311;-77
2024/01/31 05:33:04;;;;;;;;;;;;;;;22.59;16.76;99630.47;5095310;28;20407;-77
2024/01/31 05:35:31;;;;;;;;;;;;;;;22.73;17.04;99624.19;5101147;28;19927;-77
2024/01/31 05:37:57;;;;;;;;;;;;;;;22.73;16.79;99627.81;5094299;28;20295;-77
2024/01/31 05:40:23;;;;;;;;;;;;;;;22.93;16.95;99619.94;5101550;28;19966;-77
2024/01/31 05:42:49;;;;;;;;;;;;;;;23.19;16.49;99622.53;5096493;28;20010;-77
2024/01/31 05:45:15;;;;;;;;;;;;;;;23.14;16.56;99626.50;5086056;27;20370;-77
2024/01/31 05:47:41;;;;;;;;;;;;;;;23.32;16.32;99616.19;5104769;28;19923;-78
2024/01/31 05:50:07;;;;;;;;;;;;;;;23.35;16.21;99623.03;5102592;27;19976;-78
2024/01/31 05:52:34;;;;;;;;;;;;;;;23.24;16.59;99620.13;5098970;27;19965;-76
2024/01/31 05:55:00;;;;;;;;;;;;;;;23.12;16.72;99616.88;5106682;28;19973;-77
2024/01/31 05:57:26;;;;;;;;;;;;;;;22.98;17.07;99611.97;5097464;27;19928;-77
2024/01/31 05:59:52;;;;;;;;;;;;;;;22.75;17.23;99605.00;5099529;27;19931;-76
2024/01/31 06:02:18;;;;;;;;;;;;;;;22.99;17.27;99607.16;5103124;27;19939;-76
2024/01/31 06:04:44;;;;;;;;;;;;;;;23.05;17.07;99606.44;5095606;28;20381;-76
2024/01/31 06:07:12;;;;;;;;;;;;;;;23.14;16.95;99608.88;5077790;28;19912;-76
2024/01/31 06:09:40;;;;;;;;;;;;;;;22.91;17.31;99611.94;5095701;28;20003;-76
2024/01/31 06:12:06;;;;;;;;;;;;;;;22.64;17.36;99614.13;5104845;28;19916;-76
2024/01/31 06:14:36;;;;;;;;;;;;;;;22.68;17.58;99614.94;5097152;28;20262;-76
2024/01/31 06:17:03;;;;;;;;;;;;;;;23.00;17.48;99620.81;5096114;28;20015;-76
2024/01/31 06:19:29;;;;;;;;;;;;;;;23.30;17.12;99615.78;5096496;28;19920;-76
2024/01/31 06:21:55;;;;;;;;;;;;;;;23.47;17.00;99619.09;5095226;28;19917;-76
2024/01/31 06:24:21;;;;;;;;;;;;;;;23.72;16.62;99620.00;5109128;28;19965;-76
2024/01/31 06:26:48;;;;;;;;;;;;;;;23.55;17.01;99623.56;5102122;28;20409;-76
2024/01/31 06:29:18;;;;;;;;;;;;;;;23.52;17.02;99615.94;5111677;28;20403;-76
2024/01/31 06:31:47;;;;;;;;;;;;;;;23.33;17.38;99617.00;5108960;28;20015;-76
2024/01/31 06:34:14;;;;;;;;;;;;;;;23.42;17.31;99614.69;5090318;28;19920;-76
2024/01/31 06:36:40;;;;;;;;;;;;;;;23.65;16.96;99617.19;5115934;28;19923;-76
2024/01/31 06:39:06;;;;;;;;;;;;;;;23.14;17.42;99625.69;5108599;27;19965;-76
2024/01/31 06:41:35;;;;;;;;;;;;;;;23.29;17.40;99613.38;5099142;28;19920;-76
2024/01/31 06:44:01;;;;;;;;;;;;;;;23.31;17.60;99613.78;5096742;28;19959;-76
2024/01/31 06:46:27;;;;;;;;;;;;;;;23.55;17.27;99623.56;5098457;27;19938;-76
2024/01/31 06:48:53;;;;;;;;;;;;;;;23.89;17.17;99622.91;5104358;27;19920;-76
2024/01/31 06:51:19;;;;;;;;;;;;;;;23.77;17.41;99617.63;5115736;28;19919;-76
2024/01/31 06:53:45;;;;;;;;;;;;;;;24.03;17.05;99625.75;5116020;28;19915;-76
2024/01/31 06:56:16;;;;;;;;;;;;;;;23.98;17.43;99639.34;5103886;28;19920;-76
2024/01/31 06:58:44;;;;;;;;;;;;;;;23.57;17.68;99635.19;5098848;28;19927;-76
2024/01/31 07:01:13;;;;;;;;;;;;;;;23.63;17.92;99637.22;5110060;28;19922;-76
2024/01/31 07:03:39;;;;;;;;;;;;;;;23.35;17.82;99635.06;5113093;28;20373;-76
2024/01/31 07:06:05;;;;;;;;;;;;;;;23.31;17.92;99637.00;5098249;28;20381;-76
2024/01/31 07:08:31;;;;;;;;;;;;;;;23.35;18.13;99637.88;5114329;28;19920;-76
2024/01/31 07:10:57;;;;;;;;;;;;;;;23.87;17.75;99638.50;5115599;28;19915;-76
2024/01/31 07:13:23;;;;;;;;;;;;;;;24.00;17.54;99648.97;5115588;28;20446;-76
2024/01/31 07:15:49;;;;;;;;;;;;;;;23.93;17.50;99645.34;5101245;28;19924;-76
2024/01/31 07:18:15;;;;;;;;;;;;;;;23.79;17.93;99645.28;5110983;28;19919;-76
2024/01/31 07:20:41;;;;;;;;;;;;;;;24.20;17.84;99646.63;5105894;28;19916;-77
2024/01/31 07:23:07;;;;;;;;;;;;;;;24.54;17.40;99642.31;5099771;28;20001;-77
2024/01/31 07:25:33;;;;;;;;;;;;;;;24.33;17.53;99647.06;5107774;28;19922;-76
2024/01/31 07:27:59;;;;;;;;;;;;;;;24.21;17.83;99647.44;5108530;28;19923;-77
2024/01/31 07:30:25;;;;;;;;;;;;;;;24.28;17.55;99644.66;5109553;28;19920;-77
2024/01/31 07:32:51;;;;;;;;;;;;;;;24.35;17.88;99653.91;5106086;28;19916;-77
2024/01/31 07:35:18;;;;;;;;;;;;;;;24.53;17.98;99657.53;5115123;28;19926;-77
2024/01/31 07:37:44;;;;;;;;;;;;;;;24.34;17.97;99660.72;5101888;28;19947;-77
2024/01/31 07:40:10;;;;;;;;;;;;;;;24.61;17.64;99659.16;5114529;28;20269;-77
2024/01/31 07:42:36;;;;;;;;;;;;;;;24.84;17.42;99661.59;5114682;28;20380;-77
2024/01/31 07:45:04;;;;;;;;;;;;;;;24.54;17.74;99659.16;5094942;28;20023;-77
2024/01/31 07:47:30;;;;;;;;;;;;;;;24.14;18.28;99672.69;5095636;27;20330;-78
2024/01/31 07:49:56;;;;;;;;;;;;;;;24.13;18.28;99668.28;5105121;28;19916;-78
2024/01/31 07:52:22;;;;;;;;;;;;;;;24.07;18.08;99679.09;5100761;27;20038;-78
2024/01/31 07:54:48;;;;;;;;;;;;;;;24.14;18.21;99670.69;5110652;27;20005;-78
2024/01/31 07:57:14;;;;;;;;;;;;;;;24.29;18.45;99666.75;5109128;27;19927;-76
2024/01/31 07:59:40;;;;;;;;;;;;;;;24.62;18.01;99666.38;5103919;27;19920;-77
2024/01/31 08:02:06;;;;;;;;;;;;;;;24.95;17.93;99670.03;5100073;27;19916;-76
2024/01/31 08:04:32;;;;;;;;;;;;;;;24.60;18.18;99671.59;5086425;27;19920;-77
2024/01/31 08:06:58;;;;;;;;;;;;;;;24.30;18.58;99668.31;5100366;27;19919;-76
2024/01/31 08:09:24;;;;;;;;;;;;;;;24.45;18.27;99666.34;5099668;28;19927;-77
2024/01/31 08:11:51;;;;;;;;;;;;;;;24.59;17.95;99666.38;5099163;28;19938;-76
2024/01/31 08:14:17;;;;;;;;;;;;;;;24.98;18.32;99672.84;5098674;28;19971;-77
2024/01/31 08:16:44;;;;;;;;;;;;;;;25.38;18.22;99672.41;5102571;28;19916;-77
2024/01/31 08:19:10;;;;;;;;;;;;;;;25.26;17.96;99669.19;5103661;28;19918;-76
2024/01/31 08:21:36;;;;;;;;;;;;;;;25.35;18.01;99678.00;5105007;28;19966;-77
2024/01/31 08:24:02;;;;;;;;;;;;;;;25.66;17.72;99673.56;5101722;28;19916;-77
2024/01/31 08:26:28;;;;;;;;;;;;;;;25.56;17.81;99671.56;5087740;28;19920;-78
2024/01/31 08:28:55;;;;;;;;;;;;;;;25.56;17.91;99668.75;5104368;27;19971;-76
2024/01/31 08:31:21;;;;;;;;;;;;;;;25.67;17.93;99675.16;5095855;28;19985;-76
2024/01/31 08:33:47;;;;;;;;;;;;;;;25.87;18.07;99679.91;5100012;28;20375;-76
2024/01/31 08:36:13;;;;;;;;;;;;;;;26.09;17.48;99686.28;5100639;28;19920;-77
2024/01/31 08:38:43;;;;;;;;;;;;;;;26.18;17.41;99681.03;5097516;27;19923;-77
2024/01/31 08:41:12;;;;;;;;;;;;;;;25.31;17.85;99678.03;5102574;28;19927;-78
2024/01/31 08:43:38;;;;;;;;;;;;;;;24.98;18.36;99674.84;5100670;28;19932;-77
2024/01/31 08:46:04;;;;;;;;;;;;;;;24.21;18.80;99678.31;5099741;28;19920;-77
2024/01/31 08:48:33;;;;;;;;;;;;;;;23.47;18.94;99678.78;5101001;27;20218;-77
2024/01/31 08:50:59;;;;;;;;;;;;;;;23.14;19.59;99681.72;5105011;28;19928;-77
2024/01/31 08:53:25;;;;;;;;;;;;;;;23.50;19.41;99685.59;5100283;28;20010;-77
2024/01/31 08:55:51;;;;;;;;;;;;;;;23.69;19.46;99680.50;5112326;28;19915;-77
2024/01/31 08:58:17;;;;;;;;;;;;;;;24.01;19.21;99686.25;5086459;28;19924;-77
2024/01/31 09:00:43;;;;;;;;;;;;;;;24.34;19.11;99682.38;5110757;28;19919;-77
2024/01/31 09:03:09;;;;;;;;;;;;;;;24.94;18.28;99677.66;5112799;28;20331;-77
2024/01/31 09:05:35;;;;;;;;;;;;;;;25.35;18.23;99681.63;5113012;28;20262;-77
2024/01/31 09:08:02;;;;;;;;;;;;;;;25.70;17.90;99674.34;5099148;28;20297;-77
2024/01/31 09:10:28;;;;;;;;;;;;;;;25.63;17.65;99677.97;5101994;28;19923;-78
2024/01/31 09:12:54;;;;;;;;;;;;;;;24.93;18.25;99690.09;5100280;28;19919;-77
2024/01/31 09:15:21;;;;;;;;;;;;;;;24.57;19.11;99692.06;5096528;28;19924;-77
2024/01/31 09:17:47;;;;;;;;;;;;;;;24.22;18.91;99691.97;5093158;28;19916;-77
2024/01/31 09:20:14;;;;;;;;;;;;;;;24.26;18.78;99689.16;5097675;28;19912;-77
2024/01/31 09:22:40;;;;;;;;;;;;;;;24.82;19.13;99686.50;5100570;28;19926;-77
2024/01/31 09:25:06;;;;;;;;;;;;;;;24.43;18.97;99697.66;5082166;27;20377;-77
2024/01/31 09:27:32;;;;;;;;;;;;;;;24.38;19.25;99683.19;5116344;28;19912;-77
2024/01/31 09:29:59;;;;;;;;;;;;;;;24.39;18.94;99682.78;5115650;28;20019;-77
2024/01/31 09:32:25;;;;;;;;;;;;;;;24.84;18.99;99691.69;5115873;28;19916;-77
2024/01/31 09:34:51;;;;;;;;;;;;;;;25.32;18.21;99684.47;5115162;28;19923;-77
2024/01/31 09:37:17;;;;;;;;;;;;;;;25.85;18.52;99684.34;5105845;28;19928;-77
2024/01/31 09:39:43;;;;;;;;;;;;;;;26.04;18.03;99669.78;5107271;28;20004;-77
2024/01/31 09:42:11;;;;;;;;;;;;;;;26.25;17.82;99666.09;5106409;28;19973;-77
2024/01/31 09:44:38;;;;;;;;;;;;;;;26.38;17.32;99670.03;5095199;28;19971;-77
2024/01/31 09:47:05;;;;;;;;;;;;;;;25.85;18.10;99671.09;5089546;28;19923;-77
2024/01/31 09:49:31;;;;;;;;;;;;;;;25.39;18.45;99673.22;5090866;28;20423;-77
2024/01/31 09:51:59;;;;;;;;;;;;;;;25.25;18.65;99674.00;5095399;28;19978;-77
2024/01/31 09:54:25;;;;;;;;;;;;;;;24.93;18.89;99676.06;5089954;28;19924;-77
2024/01/31 09:56:52;;;;;;;;;;;;;;;25.32;19.24;99667.59;5082503;28;19921;-77
2024/01/31 09:59:18;;;;;;;;;;;;;;;25.99;18.63;99670.22;5077057;28;20459;-77
2024/01/31 10:01:46;;;;;;;;;;;;;;;26.28;18.48;99670.91;5081626;28;19951;-76
2024/01/31 10:04:14;;;;;;;;;;;;;;;26.48;18.14;99675.63;5086902;28;19999;-77
2024/01/31 10:06:40;;;;;;;;;;;;;;;26.49;17.54;99673.59;5079482;28;19924;-77
2024/01/31 10:09:06;;;;;;;;;;;;;;;25.79;17.96;99671.91;5077980;28;19927;-77
2024/01/31 10:11:33;;;;;;;;;;;;;;;25.92;18.30;99664.63;5088328;28;20281;-77
2024/01/31 10:13:59;;;;;;;;;;;;;;;26.09;17.94;99672.19;5092152;28;19924;-77
2024/01/31 10:16:25;;;;;;;;;;;;;;;26.37;18.22;99669.22;5094775;28;19916;-77
2024/01/31 10:18:51;;;;;;;;;;;;;;;26.52;18.51;99659.47;5092733;28;19921;-77
2024/01/31 10:21:19;;;;;;;;;;;;;;;26.68;17.45;99654.13;5090393;28;20440;-77
2024/01/31 10:23:58;;;;;;;;;;;;;;;26.75;18.02;99653.28;5094595;28;20003;-77
2024/01/31 10:26:25;;;;;;;;;;;;;;;27.01;18.06;99643.41;5092139;28;19920;-77
2024/01/31 10:28:51;;;;;;;;;;;;;;;27.12;17.58;99644.91;5090626;28;19961;-77
2024/01/31 10:31:17;;;;;;;;;;;;;;;27.20;17.76;99637.19;5091879;28;19916;-77
2024/01/31 10:33:44;;;;;;;;;;;;;;;27.27;18.02;99632.28;5092880;28;19920;-77
2024/01/31 10:36:10;;;;;;;;;;;;;;;27.34;17.30;99637.03;5090716;28;20475;-77
2024/01/31 10:38:39;;;;;;;;;;;;;;;27.13;17.60;99634.44;5096052;28;20491;-77
2024/01/31 10:41:09;;;;;;;;;;;;;;;27.05;17.69;99641.38;5077364;28;19916;-77
2024/01/31 10:43:36;;;;;;;;;;;;;;;26.89;17.60;99629.81;5108939;28;20473;-77
2024/01/31 10:46:02;;;;;;;;;;;;;;;26.65;18.05;99626.78;5109246;28;20299;-77
2024/01/31 10:48:28;;;;;;;;;;;;;;;26.94;17.80;99635.81;5113216;28;19923;-77
2024/01/31 10:50:57;;;;;;;;;;;;;;;26.97;17.38;99617.28;5095266;28;19912;-77
2024/01/31 10:53:23;;;;;;;;;;;;;;;26.79;17.79;99620.28;5095639;28;19951;-77
2024/01/31 10:55:51;;;;;;;;;;;;;;;26.78;18.55;99626.31;5095405;28;19916;-77
2024/01/31 10:58:18;;;;;;;;;;;;;;;26.97;17.30;99622.91;5095225;28;20411;-77
2024/01/31 11:00:45;;;;;;;;;;;;;;;26.70;17.92;99617.06;5098576;28;19952;-77
2024/01/31 11:03:13;;;;;;;;;;;;;;;26.80;17.84;99612.59;5109065;28;19922;-77
2024/01/31 11:05:39;;;;;;;;;;;;;;;27.03;17.92;99612.78;5111961;28;19916;-78
2024/01/31 11:08:15;;;;;;;;;;;;;;;27.23;17.92;99610.97;5114788;28;20256;-78
2024/01/31 11:10:41;;;;;;;;;;;;;;;27.36;18.07;99606.41;5111843;28;19916;-78
2024/01/31 11:13:08;;;;;;;;;;;;;;;27.49;18.55;99606.69;5114772;28;19919;-78
2024/01/31 11:15:35;;;;;;;;;;;;;;;27.66;18.34;99606.47;5109282;28;19925;-78
2024/01/31 11:18:28;;;;;;;;;;;;;;;27.64;17.06;99606.09;5111229;28;19938;-78
2024/01/31 11:20:55;;;;;;;;;;;;;;;26.94;16.89;99607.63;5105003;28;20364;-78
2024/01/31 11:23:28;;;;;;;;;;;;;;;26.58;17.63;99614.78;5095682;28;20400;-77
2024/01/31 11:25:54;;;;;;;;;;;;;;;25.95;18.22;99624.41;5114054;28;20337;-77
2024/01/31 11:28:22;;;;;;;;;;;;;;;25.50;18.97;99617.75;5114184;28;19916;-78
2024/01/31 11:30:54;;;;;;;;;;;;;;;25.50;18.83;99609.31;5111164;28;19934;-77
2024/01/31 11:33:21;;;;;;;;;;;;;;;25.69;18.86;99613.66;5099488;28;19931;-78
2024/01/31 11:35:47;;;;;;;;;;;;;;;26.00;19.29;99621.94;5102945;28;19923;-77
2024/01/31 11:38:13;;;;;;;;;;;;;;;25.36;19.00;99623.41;5103876;28;19981;-78
2024/01/31 11:40:39;;;;;;;;;;;;;;;23.98;20.65;99630.94;5094925;28;20365;-77
2024/01/31 11:43:05;;;;;;;;;;;;;;;24.17;20.16;99619.38;5095989;28;20487;-78
2024/01/31 11:45:31;;;;;;;;;;;;;;;24.27;19.71;99615.00;5105867;27;19931;-78
2024/01/31 11:47:58;;;;;;;;;;;;;;;23.59;20.41;99613.97;5109356;27;19935;-78
2024/01/31 11:50:24;;;;;;;;;;;;;;;23.32;20.61;99621.00;5099340;28;19919;-79
2024/01/31 11:52:50;;;;;;;;;;;;;;;22.15;21.80;99619.22;5107478;27;20426;-79
2024/01/31 11:55:21;;;;;;;;;;;;;;;23.75;20.34;99608.81;5096978;28;19927;-79
2024/01/31 11:57:47;;;;;;;;;;;;;;;22.88;21.44;99618.31;5104258;28;19920;-78
2024/01/31 12:00:13;;;;;;;;;;;;;;;22.79;21.28;99617.03;5114056;28;19920;-78
2024/01/31 12:02:39;;;;;;;;;;;;;;;22.59;21.59;99613.66;5105430;27;19955;-78
2024/01/31 12:05:06;;;;;;;;;;;;;;;23.85;20.66;99610.06;5098701;27;19920;-78
2024/01/31 12:07:32;;;;;;;;;;;;;;;25.01;19.50;99598.97;5107279;28;19939;-78
2024/01/31 12:09:59;;;;;;;;;;;;;;;25.74;18.68;99596.38;5109142;28;19927;-78
2024/01/31 12:12:26;;;;;;;;;;;;;;;26.08;18.43;99594.56;5109627;28;20401;-78
2024/01/31 12:14:53;;;;;;;;;;;;;;;25.50;18.55;99598.06;5112705;28;20014;-78
2024/01/31 12:17:22;;;;;;;;;;;;;;;24.84;19.21;99585.75;5113145;28;19979;-78
2024/01/31 12:19:49;;;;;;;;;;;;;;;24.53;19.68;99584.53;5093759;28;20431;-78
2024/01/31 12:22:18;;;;;;;;;;;;;;;24.88;19.27;99583.72;5110481;28;20018;-78
2024/01/31 12:24:44;;;;;;;;;;;;;;;25.39;19.19;99583.22;5112868;28;19923;-78
2024/01/31 12:27:11;;;;;;;;;;;;;;;25.69;18.31;99577.91;5107040;28;20368;-78
2024/01/31 12:29:37;;;;;;;;;;;;;;;25.39;19.26;99581.19;5112101;27;19981;-79
2024/01/31 12:32:04;;;;;;;;;;;;;;;25.30;18.92;99589.25;5100611;28;19955;-78
2024/01/31 12:34:30;;;;;;;;;;;;;;;23.74;20.79;99597.97;5101081;27;20408;-78
2024/01/31 12:36:56;;;;;;;;;;;;;;;22.65;21.67;99604.53;5093882;28;20020;-78
2024/01/31 12:39:22;;;;;;;;;;;;;;;22.77;21.52;99606.22;5104392;28;19916;-78
2024/01/31 12:41:48;;;;;;;;;;;;;;;23.14;21.08;99598.47;5109527;27;19920;-78
2024/01/31 12:44:14;;;;;;;;;;;;;;;23.89;20.53;99610.88;5112189;28;20404;-79